sensor_id;sensor_type;location;lat;lon;timestamp;temperature;humidity
29849;DHT22;16728;50.832;5.590;2022-08-02T00:02:53;20.10;99.90
29849;DHT22;16728;50.832;5.590;2022-08-02T00:05:55;20.10;99.90
29849;DHT22;16728;50.832;5.590;2022-08-02T00:08:57;20.00;99.90
29849;DHT22;16728;50.832;5.590;2022-08-02T00:11:59;19.90;99.90
29849;DHT22;16728;50.832;5.590;2022-08-02T00:15:01;19.80;99.90
29849;DHT22;16728;50.832;5.590;2022-08-02T00:18:03;19.80;99.90
29849;DHT22;16728;50.832;5.590;2022-08-02T00:21:05;19.80;99.90
29849;DHT22;16728;50.832;5.590;2022-08-02T00:24:07;19.80;99.90
29849;DHT22;16728;50.832;5.590;2022-08-02T00:27:29;19.80;99.90
29849;DHT22;16728;50.832;5.590;2022-08-02T00:30:31;19.70;99.90
29849;DHT22;16728;50.832;5.590;2022-08-02T00:33:33;19.70;99.90
29849;DHT22;16728;50.832;5.590;2022-08-02T00:36:55;19.80;99.90
29849;DHT22;16728;50.832;5.590;2022-08-02T00:39:57;19.80;99.90
29849;DHT22;16728;50.832;5.590;2022-08-02T00:43:05;19.80;99.90
29849;DHT22;16728;50.832;5.590;2022-08-02T00:46:08;19.80;99.90
29849;DHT22;16728;50.832;5.590;2022-08-02T00:49:12;19.70;99.90
29849;DHT22;16728;50.832;5.590;2022-08-02T00:52:17;19.70;99.90
29849;DHT22;16728;50.832;5.590;2022-08-02T00:55:19;19.60;99.90
29849;DHT22;16728;50.832;5.590;2022-08-02T00:58:31;19.60;99.90
29849;DHT22;16728;50.832;5.590;2022-08-02T01:01:33;19.60;99.90
29849;DHT22;16728;50.832;5.590;2022-08-02T01:04:57;19.60;99.90
29849;DHT22;16728;50.832;5.590;2022-08-02T01:07:59;19.50;99.90
29849;DHT22;16728;50.832;5.590;2022-08-02T01:11:02;19.40;99.90
29849;DHT22;16728;50.832;5.590;2022-08-02T01:14:09;19.40;99.90
29849;DHT22;16728;50.832;5.590;2022-08-02T01:30:37;19.40;99.90
29849;DHT22;16728;50.832;5.590;2022-08-02T01:37:10;19.40;99.90
29849;DHT22;16728;50.832;5.590;2022-08-02T01:40:25;19.30;99.90
29849;DHT22;16728;50.832;5.590;2022-08-02T01:43:29;19.20;99.90
29849;DHT22;16728;50.832;5.590;2022-08-02T01:46:33;19.20;99.90
29849;DHT22;16728;50.832;5.590;2022-08-02T01:49:36;19.30;99.90
29849;DHT22;16728;50.832;5.590;2022-08-02T01:52:44;19.30;99.90
29849;DHT22;16728;50.832;5.590;2022-08-02T01:55:55;19.40;99.90
29849;DHT22;16728;50.832;5.590;2022-08-02T01:59:00;19.50;99.90
29849;DHT22;16728;50.832;5.590;2022-08-02T02:02:03;19.50;99.90
29849;DHT22;16728;50.832;5.590;2022-08-02T02:05:18;19.40;99.90
29849;DHT22;16728;50.832;5.590;2022-08-02T02:08:31;19.40;99.90
29849;DHT22;16728;50.832;5.590;2022-08-02T02:11:34;19.30;99.90
29849;DHT22;16728;50.832;5.590;2022-08-02T02:14:58;19.30;99.90
29849;DHT22;16728;50.832;5.590;2022-08-02T02:18:01;19.20;99.90
29849;DHT22;16728;50.832;5.590;2022-08-02T02:21:14;19.20;99.90
29849;DHT22;16728;50.832;5.590;2022-08-02T02:24:16;19.10;99.90
29849;DHT22;16728;50.832;5.590;2022-08-02T02:27:21;19.00;99.90
29849;DHT22;16728;50.832;5.590;2022-08-02T02:30:26;19.00;99.90
29849;DHT22;16728;50.832;5.590;2022-08-02T02:33:31;19.00;99.90
29849;DHT22;16728;50.832;5.590;2022-08-02T02:36:34;18.80;99.90
29849;DHT22;16728;50.832;5.590;2022-08-02T02:39:38;18.80;99.90
29849;DHT22;16728;50.832;5.590;2022-08-02T02:42:41;18.90;99.90
29849;DHT22;16728;50.832;5.590;2022-08-02T02:45:50;19.00;99.90
29849;DHT22;16728;50.832;5.590;2022-08-02T02:48:53;19.00;99.90
29849;DHT22;16728;50.832;5.590;2022-08-02T02:51:56;19.00;99.90
29849;DHT22;16728;50.832;5.590;2022-08-02T02:54:59;19.00;99.90
29849;DHT22;16728;50.832;5.590;2022-08-02T02:58:02;19.00;99.90
29849;DHT22;16728;50.832;5.590;2022-08-02T03:01:04;18.90;99.90
29849;DHT22;16728;50.832;5.590;2022-08-02T03:04:45;18.90;99.90
29849;DHT22;16728;50.832;5.590;2022-08-02T03:07:58;18.70;99.90
29849;DHT22;16728;50.832;5.590;2022-08-02T03:11:00;18.70;99.90
29849;DHT22;16728;50.832;5.590;2022-08-02T03:14:08;18.60;99.90
29849;DHT22;16728;50.832;5.590;2022-08-02T03:17:10;18.60;99.90
29849;DHT22;16728;50.832;5.590;2022-08-02T03:20:16;18.60;99.90
29849;DHT22;16728;50.832;5.590;2022-08-02T03:23:18;18.70;99.90
29849;DHT22;16728;50.832;5.590;2022-08-02T03:26:20;18.80;99.90
29849;DHT22;16728;50.832;5.590;2022-08-02T03:29:22;18.70;99.90
29849;DHT22;16728;50.832;5.590;2022-08-02T03:32:24;18.80;99.90
29849;DHT22;16728;50.832;5.590;2022-08-02T03:35:26;18.70;99.90
29849;DHT22;16728;50.832;5.590;2022-08-02T03:38:29;18.70;99.90
29849;DHT22;16728;50.832;5.590;2022-08-02T03:41:34;18.60;99.90
29849;DHT22;16728;50.832;5.590;2022-08-02T03:44:38;18.70;99.90
29849;DHT22;16728;50.832;5.590;2022-08-02T03:47:41;18.70;99.90
29849;DHT22;16728;50.832;5.590;2022-08-02T03:50:46;18.70;99.90
29849;DHT22;16728;50.832;5.590;2022-08-02T03:53:48;18.70;99.90
29849;DHT22;16728;50.832;5.590;2022-08-02T03:56:51;18.70;99.90
29849;DHT22;16728;50.832;5.590;2022-08-02T03:59:53;18.80;99.90
29849;DHT22;16728;50.832;5.590;2022-08-02T04:02:55;18.80;99.90
29849;DHT22;16728;50.832;5.590;2022-08-02T04:05:57;18.80;99.90
29849;DHT22;16728;50.832;5.590;2022-08-02T04:09:05;18.70;99.90
29849;DHT22;16728;50.832;5.590;2022-08-02T04:12:07;18.70;99.90
29849;DHT22;16728;50.832;5.590;2022-08-02T04:15:12;18.70;99.90
29849;DHT22;16728;50.832;5.590;2022-08-02T04:18:15;18.70;99.90
29849;DHT22;16728;50.832;5.590;2022-08-02T04:21:20;18.80;99.90
29849;DHT22;16728;50.832;5.590;2022-08-02T04:24:31;18.70;99.90
29849;DHT22;16728;50.832;5.590;2022-08-02T04:27:36;18.80;99.90
29849;DHT22;16728;50.832;5.590;2022-08-02T04:30:59;18.80;99.90
29849;DHT22;16728;50.832;5.590;2022-08-02T04:34:02;18.90;99.90
29849;DHT22;16728;50.832;5.590;2022-08-02T04:37:04;18.70;99.90
29849;DHT22;16728;50.832;5.590;2022-08-02T04:40:11;18.70;99.90
29849;DHT22;16728;50.832;5.590;2022-08-02T04:43:13;18.70;99.90
29849;DHT22;16728;50.832;5.590;2022-08-02T04:46:15;18.70;99.90
29849;DHT22;16728;50.832;5.590;2022-08-02T04:49:17;18.70;99.90
29849;DHT22;16728;50.832;5.590;2022-08-02T04:52:19;18.80;99.90
29849;DHT22;16728;50.832;5.590;2022-08-02T04:55:21;18.70;99.90
29849;DHT22;16728;50.832;5.590;2022-08-02T04:58:26;18.90;99.90
29849;DHT22;16728;50.832;5.590;2022-08-02T05:01:43;18.80;99.90
29849;DHT22;16728;50.832;5.590;2022-08-02T05:04:45;18.90;99.90
29849;DHT22;16728;50.832;5.590;2022-08-02T05:07:46;19.00;99.90
29849;DHT22;16728;50.832;5.590;2022-08-02T05:10:48;19.00;99.90
29849;DHT22;16728;50.832;5.590;2022-08-02T05:13:50;19.00;99.90
29849;DHT22;16728;50.832;5.590;2022-08-02T05:17:00;19.00;99.90
29849;DHT22;16728;50.832;5.590;2022-08-02T05:20:03;19.10;99.90
29849;DHT22;16728;50.832;5.590;2022-08-02T05:23:06;19.10;99.90
29849;DHT22;16728;50.832;5.590;2022-08-02T05:26:08;19.10;99.90
29849;DHT22;16728;50.832;5.590;2022-08-02T05:29:10;19.10;99.90
29849;DHT22;16728;50.832;5.590;2022-08-02T05:32:11;19.10;99.90
29849;DHT22;16728;50.832;5.590;2022-08-02T05:35:20;19.10;99.90
29849;DHT22;16728;50.832;5.590;2022-08-02T05:38:23;19.10;99.90
29849;DHT22;16728;50.832;5.590;2022-08-02T05:41:26;19.10;99.90
29849;DHT22;16728;50.832;5.590;2022-08-02T05:44:31;19.10;99.90
29849;DHT22;16728;50.832;5.590;2022-08-02T05:47:34;19.20;99.90
29849;DHT22;16728;50.832;5.590;2022-08-02T05:50:38;19.20;99.90
29849;DHT22;16728;50.832;5.590;2022-08-02T06:00:06;19.40;99.90
29849;DHT22;16728;50.832;5.590;2022-08-02T06:06:51;19.50;99.90
29849;DHT22;16728;50.832;5.590;2022-08-02T06:09:55;19.60;99.90
29849;DHT22;16728;50.832;5.590;2022-08-02T06:13:08;19.80;99.90
29849;DHT22;16728;50.832;5.590;2022-08-02T06:16:15;19.90;99.90
29849;DHT22;16728;50.832;5.590;2022-08-02T06:19:33;20.00;99.90
29849;DHT22;16728;50.832;5.590;2022-08-02T06:22:53;20.10;99.90
29849;DHT22;16728;50.832;5.590;2022-08-02T06:25:57;20.20;99.90
29849;DHT22;16728;50.832;5.590;2022-08-02T06:28:59;20.30;99.90
29849;DHT22;16728;50.832;5.590;2022-08-02T06:32:02;20.40;99.90
29849;DHT22;16728;50.832;5.590;2022-08-02T06:35:05;20.50;99.90
29849;DHT22;16728;50.832;5.590;2022-08-02T06:38:11;20.70;99.90
29849;DHT22;16728;50.832;5.590;2022-08-02T06:41:15;20.70;99.90
29849;DHT22;16728;50.832;5.590;2022-08-02T06:44:18;20.80;99.90
29849;DHT22;16728;50.832;5.590;2022-08-02T06:47:40;20.90;99.90
29849;DHT22;16728;50.832;5.590;2022-08-02T06:50:42;21.00;99.90
29849;DHT22;16728;50.832;5.590;2022-08-02T06:53:45;21.10;99.90
29849;DHT22;16728;50.832;5.590;2022-08-02T06:56:47;21.20;99.90
29849;DHT22;16728;50.832;5.590;2022-08-02T06:59:49;21.20;99.90
29849;DHT22;16728;50.832;5.590;2022-08-02T07:02:51;21.20;99.90
29849;DHT22;16728;50.832;5.590;2022-08-02T07:05:53;21.30;99.90
29849;DHT22;16728;50.832;5.590;2022-08-02T07:08:56;21.30;99.90
29849;DHT22;16728;50.832;5.590;2022-08-02T07:12:18;21.30;99.90
29849;DHT22;16728;50.832;5.590;2022-08-02T07:15:20;21.40;99.90
29849;DHT22;16728;50.832;5.590;2022-08-02T07:18:23;21.40;99.90
29849;DHT22;16728;50.832;5.590;2022-08-02T07:21:25;21.50;99.90
29849;DHT22;16728;50.832;5.590;2022-08-02T07:24:47;21.50;99.90
29849;DHT22;16728;50.832;5.590;2022-08-02T07:27:49;21.60;99.90
29849;DHT22;16728;50.832;5.590;2022-08-02T07:30:51;21.70;99.90
29849;DHT22;16728;50.832;5.590;2022-08-02T07:33:53;21.80;99.90
29849;DHT22;16728;50.832;5.590;2022-08-02T07:36:55;21.90;99.90
29849;DHT22;16728;50.832;5.590;2022-08-02T07:40:00;22.00;99.90
29849;DHT22;16728;50.832;5.590;2022-08-02T07:43:07;22.00;99.90
29849;DHT22;16728;50.832;5.590;2022-08-02T07:46:09;22.10;99.90
29849;DHT22;16728;50.832;5.590;2022-08-02T07:49:11;22.20;99.90
29849;DHT22;16728;50.832;5.590;2022-08-02T07:52:19;22.20;99.90
29849;DHT22;16728;50.832;5.590;2022-08-02T07:55:21;22.30;99.90
29849;DHT22;16728;50.832;5.590;2022-08-02T07:58:23;22.40;99.90
29849;DHT22;16728;50.832;5.590;2022-08-02T08:01:25;22.60;99.90
29849;DHT22;16728;50.832;5.590;2022-08-02T08:04:27;22.70;99.90
29849;DHT22;16728;50.832;5.590;2022-08-02T08:07:29;22.80;99.90
29849;DHT22;16728;50.832;5.590;2022-08-02T08:10:31;22.90;99.90
29849;DHT22;16728;50.832;5.590;2022-08-02T08:13:33;23.00;99.90
29849;DHT22;16728;50.832;5.590;2022-08-02T08:16:35;23.10;99.90
29849;DHT22;16728;50.832;5.590;2022-08-02T08:19:36;23.20;99.90
29849;DHT22;16728;50.832;5.590;2022-08-02T08:22:52;23.30;99.90
29849;DHT22;16728;50.832;5.590;2022-08-02T08:25:54;23.30;99.90
29849;DHT22;16728;50.832;5.590;2022-08-02T08:28:56;23.40;99.90
29849;DHT22;16728;50.832;5.590;2022-08-02T08:31:58;23.50;99.90
29849;DHT22;16728;50.832;5.590;2022-08-02T08:35:00;23.60;99.90
29849;DHT22;16728;50.832;5.590;2022-08-02T08:38:04;23.50;99.90
29849;DHT22;16728;50.832;5.590;2022-08-02T08:41:08;23.60;99.90
29849;DHT22;16728;50.832;5.590;2022-08-02T08:44:12;23.60;99.90
29849;DHT22;16728;50.832;5.590;2022-08-02T08:47:14;23.70;99.90
29849;DHT22;16728;50.832;5.590;2022-08-02T08:50:19;23.70;99.90
29849;DHT22;16728;50.832;5.590;2022-08-02T08:53:26;23.70;99.90
29849;DHT22;16728;50.832;5.590;2022-08-02T08:56:38;23.80;99.90
29849;DHT22;16728;50.832;5.590;2022-08-02T08:59:41;23.90;99.90
29849;DHT22;16728;50.832;5.590;2022-08-02T09:02:43;23.90;99.90
29849;DHT22;16728;50.832;5.590;2022-08-02T09:05:45;24.00;99.90
29849;DHT22;16728;50.832;5.590;2022-08-02T09:08:50;24.10;99.90
29849;DHT22;16728;50.832;5.590;2022-08-02T09:11:52;24.20;99.90
29849;DHT22;16728;50.832;5.590;2022-08-02T09:14:54;24.30;99.90
29849;DHT22;16728;50.832;5.590;2022-08-02T09:17:56;24.40;99.90
29849;DHT22;16728;50.832;5.590;2022-08-02T09:21:01;24.50;99.90
29849;DHT22;16728;50.832;5.590;2022-08-02T09:24:21;24.60;99.90
29849;DHT22;16728;50.832;5.590;2022-08-02T09:27:24;24.70;99.90
29849;DHT22;16728;50.832;5.590;2022-08-02T09:30:26;24.70;99.90
29849;DHT22;16728;50.832;5.590;2022-08-02T09:33:28;24.70;99.90
29849;DHT22;16728;50.832;5.590;2022-08-02T09:36:43;24.80;99.90
29849;DHT22;16728;50.832;5.590;2022-08-02T09:39:46;24.90;99.90
29849;DHT22;16728;50.832;5.590;2022-08-02T09:45:58;25.10;99.90
29849;DHT22;16728;50.832;5.590;2022-08-02T09:49:06;25.20;99.90
29849;DHT22;16728;50.832;5.590;2022-08-02T09:52:09;25.20;99.90
29849;DHT22;16728;50.832;5.590;2022-08-02T09:55:11;25.10;99.90
29849;DHT22;16728;50.832;5.590;2022-08-02T09:58:20;25.00;99.90
29849;DHT22;16728;50.832;5.590;2022-08-02T10:01:32;24.90;99.90
29849;DHT22;16728;50.832;5.590;2022-08-02T10:04:39;24.90;99.90
29849;DHT22;16728;50.832;5.590;2022-08-02T10:07:54;25.00;99.90
29849;DHT22;16728;50.832;5.590;2022-08-02T10:10:57;25.00;99.90
29849;DHT22;16728;50.832;5.590;2022-08-02T10:14:05;25.10;99.90
29849;DHT22;16728;50.832;5.590;2022-08-02T10:17:07;25.10;99.90
29849;DHT22;16728;50.832;5.590;2022-08-02T10:20:09;25.10;99.90
29849;DHT22;16728;50.832;5.590;2022-08-02T10:23:13;25.20;99.90
29849;DHT22;16728;50.832;5.590;2022-08-02T10:26:18;25.30;99.90
29849;DHT22;16728;50.832;5.590;2022-08-02T10:29:30;25.50;99.90
29849;DHT22;16728;50.832;5.590;2022-08-02T10:32:56;25.50;99.90
29849;DHT22;16728;50.832;5.590;2022-08-02T10:35:58;25.60;99.90
29849;DHT22;16728;50.832;5.590;2022-08-02T10:39:08;25.60;99.90
29849;DHT22;16728;50.832;5.590;2022-08-02T10:42:12;25.60;99.10
29849;DHT22;16728;50.832;5.590;2022-08-02T10:45:18;25.60;99.40
29849;DHT22;16728;50.832;5.590;2022-08-02T10:48:20;25.70;99.40
29849;DHT22;16728;50.832;5.590;2022-08-02T10:51:23;25.80;99.90
29849;DHT22;16728;50.832;5.590;2022-08-02T10:54:33;25.80;99.70
29849;DHT22;16728;50.832;5.590;2022-08-02T10:57:36;25.90;99.20
29849;DHT22;16728;50.832;5.590;2022-08-02T11:00:38;25.90;98.80
29849;DHT22;16728;50.832;5.590;2022-08-02T11:03:40;25.90;98.80
29849;DHT22;16728;50.832;5.590;2022-08-02T11:10:29;25.80;98.50
29849;DHT22;16728;50.832;5.590;2022-08-02T11:14:04;25.90;98.60
29849;DHT22;16728;50.832;5.590;2022-08-02T11:17:12;26.00;98.40
29849;DHT22;16728;50.832;5.590;2022-08-02T11:20:16;26.00;98.10
29849;DHT22;16728;50.832;5.590;2022-08-02T11:26:46;26.10;97.30
29849;DHT22;16728;50.832;5.590;2022-08-02T11:29:48;26.10;97.60
29849;DHT22;16728;50.832;5.590;2022-08-02T11:32:57;26.20;97.40
29849;DHT22;16728;50.832;5.590;2022-08-02T11:36:01;26.20;97.50
29849;DHT22;16728;50.832;5.590;2022-08-02T11:39:13;26.20;97.60
29849;DHT22;16728;50.832;5.590;2022-08-02T11:42:16;26.10;97.90
29849;DHT22;16728;50.832;5.590;2022-08-02T11:45:24;26.10;97.80
29849;DHT22;16728;50.832;5.590;2022-08-02T11:48:32;26.10;97.50
29849;DHT22;16728;50.832;5.590;2022-08-02T11:51:34;26.20;97.90
29849;DHT22;16728;50.832;5.590;2022-08-02T11:54:38;26.20;97.60
29849;DHT22;16728;50.832;5.590;2022-08-02T11:57:40;26.20;97.00
29849;DHT22;16728;50.832;5.590;2022-08-02T12:01:03;26.30;96.50
29849;DHT22;16728;50.832;5.590;2022-08-02T12:04:05;26.40;96.50
29849;DHT22;16728;50.832;5.590;2022-08-02T12:07:08;26.40;96.00
29849;DHT22;16728;50.832;5.590;2022-08-02T12:10:16;26.60;95.80
29849;DHT22;16728;50.832;5.590;2022-08-02T12:13:20;26.60;95.50
29849;DHT22;16728;50.832;5.590;2022-08-02T12:16:22;26.60;95.60
29849;DHT22;16728;50.832;5.590;2022-08-02T12:19:43;26.60;95.30
29849;DHT22;16728;50.832;5.590;2022-08-02T12:22:44;26.60;95.70
29849;DHT22;16728;50.832;5.590;2022-08-02T12:26:02;26.60;95.90
29849;DHT22;16728;50.832;5.590;2022-08-02T12:29:04;26.60;95.30
29849;DHT22;16728;50.832;5.590;2022-08-02T12:32:23;26.60;94.80
29849;DHT22;16728;50.832;5.590;2022-08-02T12:35:29;26.60;94.40
29849;DHT22;16728;50.832;5.590;2022-08-02T12:38:31;26.60;94.50
29849;DHT22;16728;50.832;5.590;2022-08-02T12:41:33;26.60;94.70
29849;DHT22;16728;50.832;5.590;2022-08-02T12:44:37;26.70;94.90
29849;DHT22;16728;50.832;5.590;2022-08-02T12:47:47;26.70;94.90
29849;DHT22;16728;50.832;5.590;2022-08-02T12:50:49;26.80;94.80
29849;DHT22;16728;50.832;5.590;2022-08-02T12:53:52;26.90;94.60
29849;DHT22;16728;50.832;5.590;2022-08-02T12:57:14;27.00;94.20
29849;DHT22;16728;50.832;5.590;2022-08-02T13:00:30;27.00;94.30
29849;DHT22;16728;50.832;5.590;2022-08-02T13:03:32;27.10;94.00
29849;DHT22;16728;50.832;5.590;2022-08-02T13:06:53;27.00;93.80
29849;DHT22;16728;50.832;5.590;2022-08-02T13:09:55;27.10;93.80
29849;DHT22;16728;50.832;5.590;2022-08-02T13:13:03;27.00;93.80
29849;DHT22;16728;50.832;5.590;2022-08-02T13:16:06;27.10;93.80
29849;DHT22;16728;50.832;5.590;2022-08-02T13:19:08;27.10;93.60
29849;DHT22;16728;50.832;5.590;2022-08-02T13:22:10;27.10;93.10
29849;DHT22;16728;50.832;5.590;2022-08-02T13:25:12;27.00;93.20
29849;DHT22;16728;50.832;5.590;2022-08-02T13:28:14;27.00;93.40
29849;DHT22;16728;50.832;5.590;2022-08-02T13:31:16;27.00;93.20
29849;DHT22;16728;50.832;5.590;2022-08-02T13:34:37;27.10;92.80
29849;DHT22;16728;50.832;5.590;2022-08-02T13:37:40;27.20;92.70
29849;DHT22;16728;50.832;5.590;2022-08-02T13:40:42;27.20;92.50
29849;DHT22;16728;50.832;5.590;2022-08-02T13:44:05;27.20;92.80
29849;DHT22;16728;50.832;5.590;2022-08-02T13:47:11;27.20;92.60
29849;DHT22;16728;50.832;5.590;2022-08-02T13:50:13;27.10;92.60
29849;DHT22;16728;50.832;5.590;2022-08-02T13:53:15;27.20;92.80
29849;DHT22;16728;50.832;5.590;2022-08-02T13:56:17;27.10;92.20
29849;DHT22;16728;50.832;5.590;2022-08-02T13:59:19;27.20;92.20
29849;DHT22;16728;50.832;5.590;2022-08-02T14:02:40;27.20;91.90
29849;DHT22;16728;50.832;5.590;2022-08-02T14:05:42;27.20;91.90
29849;DHT22;16728;50.832;5.590;2022-08-02T14:08:49;27.10;91.80
29849;DHT22;16728;50.832;5.590;2022-08-02T14:11:50;27.20;91.50
29849;DHT22;16728;50.832;5.590;2022-08-02T14:14:52;27.10;91.50
29849;DHT22;16728;50.832;5.590;2022-08-02T14:17:54;27.20;92.00
29849;DHT22;16728;50.832;5.590;2022-08-02T14:20:57;27.10;92.00
29849;DHT22;16728;50.832;5.590;2022-08-02T14:23:59;27.20;92.00
29849;DHT22;16728;50.832;5.590;2022-08-02T14:27:04;27.20;92.30
29849;DHT22;16728;50.832;5.590;2022-08-02T14:30:06;27.20;92.40
29849;DHT22;16728;50.832;5.590;2022-08-02T14:33:09;27.20;92.40
29849;DHT22;16728;50.832;5.590;2022-08-02T14:36:11;27.20;92.70
29849;DHT22;16728;50.832;5.590;2022-08-02T14:39:13;27.20;92.60
29849;DHT22;16728;50.832;5.590;2022-08-02T14:42:15;27.30;92.50
29849;DHT22;16728;50.832;5.590;2022-08-02T14:45:18;27.40;92.50
29849;DHT22;16728;50.832;5.590;2022-08-02T14:48:22;27.40;92.20
29849;DHT22;16728;50.832;5.590;2022-08-02T14:51:27;27.40;92.20
29849;DHT22;16728;50.832;5.590;2022-08-02T14:54:29;27.40;92.20
29849;DHT22;16728;50.832;5.590;2022-08-02T14:57:32;27.40;91.90
29849;DHT22;16728;50.832;5.590;2022-08-02T15:00:34;27.40;92.10
29849;DHT22;16728;50.832;5.590;2022-08-02T15:03:42;27.50;92.10
29849;DHT22;16728;50.832;5.590;2022-08-02T15:06:44;27.40;92.40
29849;DHT22;16728;50.832;5.590;2022-08-02T15:09:46;27.50;92.60
29849;DHT22;16728;50.832;5.590;2022-08-02T15:12:48;27.50;92.30
29849;DHT22;16728;50.832;5.590;2022-08-02T15:15:50;27.50;92.00
29849;DHT22;16728;50.832;5.590;2022-08-02T15:18:52;27.50;91.90
29849;DHT22;16728;50.832;5.590;2022-08-02T15:21:55;27.50;92.00
29849;DHT22;16728;50.832;5.590;2022-08-02T15:24:57;27.50;92.30
29849;DHT22;16728;50.832;5.590;2022-08-02T15:27:59;27.60;92.10
29849;DHT22;16728;50.832;5.590;2022-08-02T15:31:02;27.50;92.00
29849;DHT22;16728;50.832;5.590;2022-08-02T15:34:03;27.50;92.00
29849;DHT22;16728;50.832;5.590;2022-08-02T15:37:06;27.50;92.10
29849;DHT22;16728;50.832;5.590;2022-08-02T15:40:09;27.50;92.20
29849;DHT22;16728;50.832;5.590;2022-08-02T15:43:11;27.50;92.20
29849;DHT22;16728;50.832;5.590;2022-08-02T15:46:13;27.50;92.20
29849;DHT22;16728;50.832;5.590;2022-08-02T15:49:16;27.50;92.40
29849;DHT22;16728;50.832;5.590;2022-08-02T15:52:18;27.50;92.40
29849;DHT22;16728;50.832;5.590;2022-08-02T15:55:20;27.60;92.20
29849;DHT22;16728;50.832;5.590;2022-08-02T15:58:22;27.60;92.10
29849;DHT22;16728;50.832;5.590;2022-08-02T16:01:24;27.60;92.20
29849;DHT22;16728;50.832;5.590;2022-08-02T16:04:38;27.50;92.20
29849;DHT22;16728;50.832;5.590;2022-08-02T16:07:40;27.60;92.30
29849;DHT22;16728;50.832;5.590;2022-08-02T16:10:42;27.60;92.70
29849;DHT22;16728;50.832;5.590;2022-08-02T16:13:44;27.60;92.50
29849;DHT22;16728;50.832;5.590;2022-08-02T16:16:55;27.60;92.50
29849;DHT22;16728;50.832;5.590;2022-08-02T16:20:00;27.50;92.60
29849;DHT22;16728;50.832;5.590;2022-08-02T16:23:01;27.50;92.80
29849;DHT22;16728;50.832;5.590;2022-08-02T16:26:05;27.50;92.30
29849;DHT22;16728;50.832;5.590;2022-08-02T16:29:07;27.50;92.30
29849;DHT22;16728;50.832;5.590;2022-08-02T16:32:09;27.50;92.60
29849;DHT22;16728;50.832;5.590;2022-08-02T16:35:13;27.50;92.30
29849;DHT22;16728;50.832;5.590;2022-08-02T16:38:14;27.50;92.40
29849;DHT22;16728;50.832;5.590;2022-08-02T16:41:17;27.50;92.40
29849;DHT22;16728;50.832;5.590;2022-08-02T16:44:20;27.50;92.70
29849;DHT22;16728;50.832;5.590;2022-08-02T16:47:31;27.50;92.80
29849;DHT22;16728;50.832;5.590;2022-08-02T16:50:53;27.50;92.80
29849;DHT22;16728;50.832;5.590;2022-08-02T16:53:55;27.50;92.90
29849;DHT22;16728;50.832;5.590;2022-08-02T16:57:01;27.50;92.80
29849;DHT22;16728;50.832;5.590;2022-08-02T17:00:09;27.50;92.70
29849;DHT22;16728;50.832;5.590;2022-08-02T17:03:11;27.50;92.80
29849;DHT22;16728;50.832;5.590;2022-08-02T17:06:14;27.50;92.80
29849;DHT22;16728;50.832;5.590;2022-08-02T17:09:17;27.50;92.80
29849;DHT22;16728;50.832;5.590;2022-08-02T17:12:39;27.40;93.10
29849;DHT22;16728;50.832;5.590;2022-08-02T17:15:41;27.40;92.90
29849;DHT22;16728;50.832;5.590;2022-08-02T17:19:03;27.40;92.90
29849;DHT22;16728;50.832;5.590;2022-08-02T17:22:05;27.40;92.80
29849;DHT22;16728;50.832;5.590;2022-08-02T17:25:11;27.40;92.80
29849;DHT22;16728;50.832;5.590;2022-08-02T17:28:15;27.40;92.80
29849;DHT22;16728;50.832;5.590;2022-08-02T17:31:17;27.40;92.90
29849;DHT22;16728;50.832;5.590;2022-08-02T17:34:30;27.40;92.90
29849;DHT22;16728;50.832;5.590;2022-08-02T17:37:32;27.30;93.10
29849;DHT22;16728;50.832;5.590;2022-08-02T17:40:35;27.30;93.30
29849;DHT22;16728;50.832;5.590;2022-08-02T17:43:37;27.30;93.20
29849;DHT22;16728;50.832;5.590;2022-08-02T17:46:59;27.30;93.20
29849;DHT22;16728;50.832;5.590;2022-08-02T17:50:02;27.30;93.40
29849;DHT22;16728;50.832;5.590;2022-08-02T17:53:08;27.30;93.50
29849;DHT22;16728;50.832;5.590;2022-08-02T17:56:12;27.20;93.50
29849;DHT22;16728;50.832;5.590;2022-08-02T17:59:17;27.20;93.60
29849;DHT22;16728;50.832;5.590;2022-08-02T18:02:21;27.20;93.50
29849;DHT22;16728;50.832;5.590;2022-08-02T18:05:23;27.20;93.50
29849;DHT22;16728;50.832;5.590;2022-08-02T18:08:42;27.20;93.50
29849;DHT22;16728;50.832;5.590;2022-08-02T18:11:50;27.10;93.70
29849;DHT22;16728;50.832;5.590;2022-08-02T18:14:53;27.10;93.90
29849;DHT22;16728;50.832;5.590;2022-08-02T18:17:56;27.10;94.00
29849;DHT22;16728;50.832;5.590;2022-08-02T18:20:58;27.10;94.10
29849;DHT22;16728;50.832;5.590;2022-08-02T18:24:21;27.10;94.10
29849;DHT22;16728;50.832;5.590;2022-08-02T18:27:24;27.00;94.20
29849;DHT22;16728;50.832;5.590;2022-08-02T18:30:26;26.90;94.30
29849;DHT22;16728;50.832;5.590;2022-08-02T18:33:29;26.90;94.50
29849;DHT22;16728;50.832;5.590;2022-08-02T18:36:50;26.90;94.60
29849;DHT22;16728;50.832;5.590;2022-08-02T18:39:52;26.80;94.70
29849;DHT22;16728;50.832;5.590;2022-08-02T18:42:55;26.80;94.70
29849;DHT22;16728;50.832;5.590;2022-08-02T18:46:02;26.80;94.90
29849;DHT22;16728;50.832;5.590;2022-08-02T18:49:15;26.70;95.00
29849;DHT22;16728;50.832;5.590;2022-08-02T18:52:17;26.70;95.10
29849;DHT22;16728;50.832;5.590;2022-08-02T18:55:31;26.60;95.20
29849;DHT22;16728;50.832;5.590;2022-08-02T18:58:54;26.60;95.30
29849;DHT22;16728;50.832;5.590;2022-08-02T19:01:56;26.50;95.40
29849;DHT22;16728;50.832;5.590;2022-08-02T19:04:59;26.50;95.50
29849;DHT22;16728;50.832;5.590;2022-08-02T19:08:01;26.50;95.70
29849;DHT22;16728;50.832;5.590;2022-08-02T19:11:03;26.40;95.80
29849;DHT22;16728;50.832;5.590;2022-08-02T19:14:05;26.40;96.00
29849;DHT22;16728;50.832;5.590;2022-08-02T19:17:07;26.30;96.20
29849;DHT22;16728;50.832;5.590;2022-08-02T19:20:30;26.20;96.50
29849;DHT22;16728;50.832;5.590;2022-08-02T19:23:32;26.20;96.60
29849;DHT22;16728;50.832;5.590;2022-08-02T19:26:34;26.20;96.70
29849;DHT22;16728;50.832;5.590;2022-08-02T19:29:38;26.10;97.00
29849;DHT22;16728;50.832;5.590;2022-08-02T19:32:49;26.10;97.20
29849;DHT22;16728;50.832;5.590;2022-08-02T19:36:02;26.00;97.90
29849;DHT22;16728;50.832;5.590;2022-08-02T19:39:05;25.90;97.80
29849;DHT22;16728;50.832;5.590;2022-08-02T19:42:06;25.90;97.80
29849;DHT22;16728;50.832;5.590;2022-08-02T19:45:09;25.80;98.10
29849;DHT22;16728;50.832;5.590;2022-08-02T19:48:15;25.70;98.40
29849;DHT22;16728;50.832;5.590;2022-08-02T19:51:18;25.60;98.40
29849;DHT22;16728;50.832;5.590;2022-08-02T19:54:39;25.60;98.60
29849;DHT22;16728;50.832;5.590;2022-08-02T19:57:56;25.60;98.60
29849;DHT22;16728;50.832;5.590;2022-08-02T20:00:58;25.60;98.80
29849;DHT22;16728;50.832;5.590;2022-08-02T20:04:01;25.50;99.10
29849;DHT22;16728;50.832;5.590;2022-08-02T20:07:03;25.40;99.10
29849;DHT22;16728;50.832;5.590;2022-08-02T20:10:05;25.40;99.30